createdAt,value
2022-09-16T00:01:32.583Z,82.55
2022-09-16T00:04:01.210Z,82.73
2022-09-16T00:06:31.775Z,82.58
2022-09-16T00:09:02.495Z,82.67
2022-09-16T00:11:35.381Z,82.09
2022-09-16T00:14:05.144Z,82.15
2022-09-16T00:16:35.493Z,81.90
2022-09-16T00:19:04.120Z,81.71
2022-09-16T00:21:33.356Z,81.28
2022-09-16T00:24:01.978Z,81.49
2022-09-16T00:26:31.065Z,81.47
2022-09-16T00:28:59.648Z,81.39
2022-09-16T00:31:28.298Z,81.35
2022-09-16T00:33:58.283Z,81.02
2022-09-16T00:36:26.916Z,81.23
2022-09-16T00:38:56.387Z,81.01
2022-09-16T00:41:33.101Z,80.87
2022-09-16T00:44:05.495Z,80.97
2022-09-16T00:46:39.963Z,81.29
2022-09-16T00:49:19.925Z,80.91
2022-09-16T00:51:54.507Z,80.90
2022-09-16T00:54:23.428Z,81.06
2022-09-16T00:56:56.474Z,80.91
2022-09-16T00:59:29.795Z,81.44
2022-09-16T01:02:06.316Z,81.12
2022-09-16T01:04:43.858Z,80.22
2022-09-16T01:07:13.522Z,80.68
2022-09-16T01:09:42.254Z,80.85
2022-09-16T01:12:10.858Z,80.53
2022-09-16T01:14:55.049Z,80.55
2022-09-16T01:17:40.559Z,80.84
2022-09-16T01:20:48.253Z,81.07
2022-09-16T01:24:04.221Z,81.27
2022-09-16T01:27:17.526Z,80.83
2022-09-16T01:30:21.337Z,80.98
2022-09-16T01:33:05.096Z,80.58
2022-09-16T01:35:55.941Z,80.71
2022-09-16T01:38:46.327Z,80.70
2022-09-16T01:41:29.360Z,80.90
2022-09-16T01:44:07.802Z,80.72
2022-09-16T01:46:48.433Z,80.74
2022-09-16T01:49:29.933Z,80.43
2022-09-16T01:52:12.182Z,80.75
2022-09-16T01:54:46.967Z,80.66
2022-09-16T01:57:22.739Z,81.62
2022-09-16T02:00:00.372Z,81.17
2022-09-16T02:02:37.405Z,81.37
2022-09-16T02:05:13.250Z,81.87
2022-09-16T02:07:48.555Z,82.18
2022-09-16T02:10:26.051Z,82.60
2022-09-16T02:13:02.247Z,82.65
2022-09-16T02:15:35.191Z,82.64
2022-09-16T02:18:12.701Z,82.35
2022-09-16T02:20:48.392Z,82.79
2022-09-16T02:23:22.466Z,82.82
2022-09-16T02:25:55.434Z,82.58
2022-09-16T02:28:32.145Z,82.36
2022-09-16T02:31:07.809Z,82.48
2022-09-16T02:33:45.376Z,83.01
2022-09-16T02:36:21.016Z,82.71
2022-09-16T02:38:56.887Z,83.25
2022-09-16T02:41:25.667Z,83.02
2022-09-16T02:43:54.713Z,82.76
2022-09-16T02:46:39.324Z,82.93
2022-09-16T02:49:19.702Z,82.92
2022-09-16T02:51:59.858Z,82.77
2022-09-16T02:54:40.026Z,83.16
2022-09-16T02:57:10.237Z,83.37
2022-09-16T02:59:39.809Z,83.39
2022-09-16T03:02:08.771Z,83.67
2022-09-16T03:04:37.465Z,84.12
2022-09-16T03:07:11.834Z,84.17
2022-09-16T03:09:45.646Z,84.16
2022-09-16T03:12:38.156Z,83.70
2022-09-16T03:15:48.945Z,83.93
2022-09-16T03:18:38.464Z,83.99
2022-09-16T03:21:18.953Z,84.09
2022-09-16T03:23:58.803Z,84.11
2022-09-16T03:26:42.512Z,84.06
2022-09-16T03:29:20.669Z,83.93
2022-09-16T03:31:59.117Z,83.83
2022-09-16T03:34:35.471Z,83.97
2022-09-16T03:37:11.209Z,83.76
2022-09-16T03:39:43.454Z,84.21
2022-09-16T03:42:13.767Z,84.20
2022-09-16T03:44:43.113Z,83.96
2022-09-16T03:47:11.960Z,84.08
2022-09-16T03:49:40.697Z,83.57
2022-09-16T03:52:09.816Z,83.92
2022-09-16T03:54:40.829Z,84.08
2022-09-16T03:57:10.717Z,83.82
2022-09-16T03:59:39.351Z,83.65
2022-09-16T04:02:08.059Z,83.83
2022-09-16T04:04:36.555Z,84.00
2022-09-16T04:07:05.328Z,83.76
2022-09-16T04:09:34.030Z,83.75
2022-09-16T04:12:05.575Z,84.14
2022-09-16T04:14:34.425Z,84.10
2022-09-16T04:17:03.686Z,84.61
2022-09-16T04:19:33.182Z,84.47
2022-09-16T04:22:01.782Z,84.66
2022-09-16T04:24:31.016Z,84.56
2022-09-16T04:26:59.816Z,84.48
2022-09-16T04:29:29.924Z,85.00
2022-09-16T04:31:58.679Z,84.44
2022-09-16T04:34:27.472Z,84.77
2022-09-16T04:36:56.285Z,84.62
2022-09-16T04:39:24.945Z,85.02
2022-09-16T04:41:53.618Z,85.02
2022-09-16T04:44:22.351Z,85.47
2022-09-16T04:46:52.678Z,85.45
2022-09-16T04:49:21.393Z,85.62
2022-09-16T04:51:50.710Z,84.75
2022-09-16T04:54:19.737Z,84.73
2022-09-16T04:56:48.901Z,84.58
2022-09-16T04:59:17.531Z,84.36
2022-09-16T05:01:46.299Z,84.41
2022-09-16T05:04:16.330Z,85.26
2022-09-16T05:06:45.057Z,84.79
2022-09-16T05:09:14.715Z,84.34
2022-09-16T05:11:43.423Z,84.40
2022-09-16T05:14:18.336Z,84.13
2022-09-16T05:16:47.721Z,83.76
2022-09-16T05:19:17.882Z,84.26
2022-09-16T05:21:47.226Z,84.31
2022-09-16T05:24:16.232Z,84.12
2022-09-16T05:26:45.531Z,84.48
2022-09-16T05:29:20.268Z,83.78
2022-09-16T05:31:49.309Z,84.19
2022-09-16T05:34:22.045Z,84.12
2022-09-16T05:36:54.369Z,84.29
2022-09-16T05:39:25.220Z,84.23
2022-09-16T05:41:57.416Z,85.03
2022-09-16T05:44:27.314Z,85.17
2022-09-16T05:46:56.495Z,86.01
2022-09-16T05:49:26.811Z,86.20
2022-09-16T05:51:55.811Z,86.37
2022-09-16T05:54:25.506Z,86.60
2022-09-16T05:56:54.332Z,86.02
2022-09-16T05:59:24.135Z,85.89
2022-09-16T06:01:52.868Z,86.05
2022-09-16T06:04:21.574Z,86.01
2022-09-16T06:06:51.525Z,86.22
2022-09-16T06:09:22.625Z,86.77
2022-09-16T06:11:59.388Z,86.53
2022-09-16T06:14:31.034Z,85.99
2022-09-16T06:16:59.846Z,86.70
2022-09-16T06:19:28.719Z,86.30
2022-09-16T06:21:58.792Z,86.05
2022-09-16T06:24:27.442Z,86.01
2022-09-16T06:26:56.113Z,85.51
2022-09-16T06:29:24.935Z,84.60
2022-09-16T06:31:53.616Z,84.67
2022-09-16T06:34:22.232Z,84.55
2022-09-16T06:36:50.837Z,84.69
2022-09-16T06:39:22.547Z,84.81
2022-09-16T06:41:51.955Z,85.17
2022-09-16T06:44:20.584Z,84.55
2022-09-16T06:46:49.196Z,84.28
2022-09-16T06:49:17.865Z,83.59
2022-09-16T06:51:46.598Z,83.67
2022-09-16T06:54:15.398Z,82.79
2022-09-16T06:56:45.407Z,82.80
2022-09-16T06:59:14.505Z,82.45
2022-09-16T07:01:43.608Z,81.94
2022-09-16T07:04:13.434Z,81.91
2022-09-16T07:07:08.161Z,81.35
2022-09-16T07:09:32.609Z,80.41
2022-09-16T07:12:03.749Z,79.80
2022-09-16T07:14:33.564Z,79.59
2022-09-16T07:17:03.161Z,79.20
2022-09-16T07:19:31.881Z,80.06
2022-09-16T07:22:00.464Z,77.67
2022-09-16T07:24:29.138Z,78.30
2022-09-16T07:26:57.717Z,78.62
2022-09-16T07:29:28.221Z,78.44
2022-09-16T07:31:56.779Z,78.08
2022-09-16T07:34:25.318Z,78.42
2022-09-16T07:36:53.993Z,78.90
2022-09-16T07:39:22.645Z,76.59
2022-09-16T07:41:51.244Z,77.16
2022-09-16T07:44:21.767Z,77.19
2022-09-16T07:46:51.849Z,77.53
2022-09-16T07:49:20.926Z,77.10
2022-09-16T07:51:49.734Z,76.30
2022-09-16T07:54:20.350Z,75.56
2022-09-16T07:56:49.407Z,75.93
2022-09-16T07:59:20.582Z,75.28
2022-09-16T08:01:52.009Z,75.18
2022-09-16T08:04:22.077Z,76.06
2022-09-16T08:06:51.097Z,75.04
2022-09-16T08:09:39.642Z,74.25
2022-09-16T08:12:10.974Z,75.23
2022-09-16T08:14:39.935Z,75.08
2022-09-16T08:17:10.000Z,73.25
2022-09-16T08:19:40.256Z,74.15
2022-09-16T08:22:09.019Z,75.15
2022-09-16T08:24:37.650Z,73.54
2022-09-16T08:27:06.415Z,74.64
2022-09-16T08:29:34.987Z,73.94
2022-09-16T08:32:04.136Z,73.02
2022-09-16T08:34:34.293Z,71.41
2022-09-16T08:37:03.399Z,72.78
2022-09-16T08:39:33.692Z,72.95
2022-09-16T08:42:37.254Z,70.15
2022-09-16T08:45:21.818Z,68.87
2022-09-16T08:48:04.251Z,69.15
2022-09-16T08:50:41.070Z,69.10
2022-09-16T08:53:17.597Z,69.31
2022-09-16T08:55:52.060Z,68.92
2022-09-16T08:58:24.265Z,69.18
2022-09-16T09:00:58.252Z,70.62
2022-09-16T09:03:38.786Z,69.67
2022-09-16T09:06:32.641Z,69.71
2022-09-16T09:09:13.421Z,69.00
2022-09-16T09:11:53.482Z,68.60
2022-09-16T09:14:41.351Z,69.40
2022-09-16T09:17:24.679Z,71.26
2022-09-16T09:20:09.014Z,70.42
2022-09-16T09:23:08.359Z,69.63
2022-09-16T09:25:48.312Z,69.32
2022-09-16T09:28:43.938Z,68.17
2022-09-16T09:31:23.753Z,70.03
2022-09-16T09:34:04.674Z,69.60
2022-09-16T09:37:00.757Z,67.80
2022-09-16T09:40:01.846Z,72.43
2022-09-16T09:42:37.361Z,69.90
2022-09-16T09:45:20.999Z,68.30
2022-09-16T09:47:57.362Z,71.07
2022-09-16T09:50:34.970Z,69.37
2022-09-16T09:53:18.445Z,67.02
2022-09-16T09:55:52.408Z,67.03
2022-09-16T09:58:35.114Z,65.60
2022-09-16T10:01:03.980Z,65.22
2022-09-16T10:03:33.334Z,64.33
2022-09-16T10:06:01.982Z,65.23
2022-09-16T10:08:39.457Z,65.87
2022-09-16T10:11:20.222Z,63.86
2022-09-16T10:13:55.542Z,61.10
2022-09-16T10:16:30.658Z,62.03
2022-09-16T10:19:05.768Z,59.24
2022-09-16T10:21:46.425Z,60.03
2022-09-16T10:24:41.079Z,58.87
2022-09-16T10:27:27.154Z,62.13
2022-09-16T10:30:16.438Z,64.40
2022-09-16T10:32:53.323Z,66.82
2022-09-16T10:35:26.119Z,70.02
2022-09-16T10:37:58.963Z,71.40
2022-09-16T10:40:28.631Z,72.29
2022-09-16T10:43:05.764Z,73.79
2022-09-16T10:45:39.838Z,74.00
2022-09-16T10:48:18.024Z,75.45
2022-09-16T10:50:56.023Z,75.33
2022-09-16T10:53:32.499Z,75.96
2022-09-16T10:56:03.728Z,78.42
2022-09-16T10:58:34.301Z,75.51
2022-09-16T11:01:21.643Z,73.26
2022-09-16T11:04:46.393Z,70.98
2022-09-16T11:07:33.304Z,72.13
2022-09-16T11:10:27.933Z,71.32
2022-09-16T11:13:45.064Z,68.38
2022-09-16T11:16:43.755Z,68.30
2022-09-16T11:19:26.672Z,67.25
2022-09-16T11:22:11.050Z,66.80
2022-09-16T11:25:41.822Z,68.82
2022-09-16T11:28:47.259Z,68.75
2022-09-16T11:31:32.441Z,70.66
2022-09-16T11:34:15.229Z,70.31
2022-09-16T11:37:02.980Z,74.45
2022-09-16T11:40:06.695Z,72.10
2022-09-16T11:42:40.943Z,74.51
2022-09-16T11:45:39.742Z,65.72
2022-09-16T11:48:42.641Z,64.09
2022-09-16T11:51:34.587Z,65.19
2022-09-16T11:54:26.006Z,67.71
2022-09-16T11:57:01.009Z,64.96
2022-09-16T11:59:38.778Z,65.57
2022-09-16T12:02:24.859Z,66.70
2022-09-16T12:05:04.363Z,64.47
2022-09-16T12:07:41.129Z,62.12
2022-09-16T12:10:23.017Z,65.67
2022-09-16T12:12:58.907Z,64.59
2022-09-16T12:15:37.479Z,61.89
2022-09-16T12:18:18.588Z,63.19
2022-09-16T12:20:54.535Z,63.04
2022-09-16T12:23:29.800Z,65.11
2022-09-16T12:26:09.568Z,65.77
2022-09-16T12:28:49.463Z,66.86
2022-09-16T12:31:28.781Z,67.22
2022-09-16T12:34:06.050Z,66.16
2022-09-16T12:36:43.648Z,64.13
2022-09-16T12:39:13.945Z,61.58
2022-09-16T12:42:20.189Z,62.70
2022-09-16T12:45:16.860Z,60.93
2022-09-16T12:48:10.036Z,63.35
2022-09-16T12:51:09.729Z,61.59
2022-09-16T12:54:16.880Z,66.11
2022-09-16T12:57:14.351Z,64.27
2022-09-16T13:00:14.171Z,59.59
2022-09-16T13:02:51.196Z,64.78
2022-09-16T13:05:32.398Z,61.24
2022-09-16T13:08:08.690Z,60.03
2022-09-16T13:10:57.793Z,62.60
2022-09-16T13:13:36.607Z,63.97
2022-09-16T13:16:09.271Z,60.61
2022-09-16T13:18:45.294Z,55.58
2022-09-16T13:21:29.129Z,55.83
2022-09-16T13:24:07.985Z,54.90
2022-09-16T13:26:42.323Z,55.31
2022-09-16T13:29:45.208Z,55.91
2022-09-16T13:32:28.847Z,54.44
2022-09-16T13:35:07.568Z,52.43
2022-09-16T13:37:36.773Z,52.88
2022-09-16T13:40:27.462Z,53.67
2022-09-16T13:43:15.347Z,53.46
2022-09-16T13:45:46.700Z,53.26
2022-09-16T13:48:19.703Z,53.35
2022-09-16T13:50:55.394Z,56.11
2022-09-16T13:53:32.055Z,52.37
2022-09-16T13:56:12.565Z,54.88
2022-09-16T13:58:58.544Z,54.90
2022-09-16T14:01:58.344Z,54.85
2022-09-16T14:04:56.990Z,55.74
2022-09-16T14:07:43.394Z,57.12
2022-09-16T14:10:22.213Z,56.97
2022-09-16T14:13:07.468Z,58.62
2022-09-16T14:15:42.237Z,58.94
2022-09-16T14:18:16.415Z,56.46
2022-09-16T14:21:03.490Z,56.89
2022-09-16T14:23:34.451Z,55.89
2022-09-16T14:26:13.667Z,54.80
2022-09-16T14:28:44.057Z,54.81
2022-09-16T14:31:20.254Z,53.88
2022-09-16T14:33:56.781Z,56.31
2022-09-16T14:36:29.108Z,54.28
2022-09-16T14:39:02.452Z,52.95
2022-09-16T14:41:37.745Z,52.90
2022-09-16T14:44:20.237Z,53.01
2022-09-16T14:47:00.259Z,56.36
2022-09-16T14:49:39.059Z,55.78
2022-09-16T14:52:21.831Z,55.62
2022-09-16T14:54:52.126Z,54.47
2022-09-16T14:57:24.158Z,53.11
2022-09-16T14:59:57.772Z,53.85
2022-09-16T15:02:32.559Z,56.41
2022-09-16T15:05:24.887Z,55.33
2022-09-16T15:08:13.754Z,54.98
2022-09-16T15:10:52.364Z,56.31
2022-09-16T15:13:25.584Z,55.01
2022-09-16T15:16:02.745Z,57.23
2022-09-16T15:18:35.378Z,58.65
2022-09-16T15:21:10.735Z,59.49
2022-09-16T15:23:42.480Z,61.20
2022-09-16T15:26:17.981Z,60.91
2022-09-16T15:28:59.390Z,60.46
2022-09-16T15:31:37.097Z,61.24
2022-09-16T15:34:24.898Z,60.78
2022-09-16T15:37:03.893Z,59.72
2022-09-16T15:39:35.272Z,61.37
2022-09-16T15:42:12.655Z,63.06
2022-09-16T15:44:50.146Z,60.92
2022-09-16T15:47:26.499Z,60.48
2022-09-16T15:50:02.570Z,62.36
2022-09-16T15:52:50.580Z,62.13
2022-09-16T15:55:33.082Z,60.94
2022-09-16T16:01:39.135Z,63.70
2022-09-16T16:04:13.499Z,63.92
2022-09-16T16:06:54.696Z,64.76
2022-09-16T16:09:45.204Z,65.94
2022-09-16T16:12:16.298Z,63.93
2022-09-16T16:14:47.155Z,64.44
2022-09-16T16:17:21.382Z,64.50
2022-09-16T16:19:52.940Z,64.34
2022-09-16T16:22:33.477Z,60.97
2022-09-16T16:25:11.478Z,62.83
2022-09-16T16:27:42.381Z,63.74
2022-09-16T16:30:16.921Z,65.37
2022-09-16T16:32:46.236Z,65.11
2022-09-16T16:36:14.645Z,66.08
2022-09-16T16:38:48.382Z,66.88
2022-09-16T16:41:44.806Z,65.70
2022-09-16T16:44:14.053Z,66.31
2022-09-16T16:46:46.672Z,67.19
2022-09-16T16:49:15.610Z,67.36
2022-09-16T16:51:52.164Z,66.79
2022-09-16T16:54:22.139Z,67.46
2022-09-16T16:56:51.457Z,68.17
2022-09-16T16:59:21.748Z,68.39
2022-09-16T17:01:56.096Z,68.58
2022-09-16T17:04:26.716Z,68.41
2022-09-16T17:07:21.441Z,68.00
2022-09-16T17:09:49.629Z,68.15
2022-09-16T17:12:48.793Z,68.12
2022-09-16T17:15:18.012Z,68.70
2022-09-16T17:22:41.351Z,69.96
2022-09-16T17:25:45.208Z,69.57
2022-09-16T17:28:15.441Z,70.54
2022-09-16T17:31:36.913Z,70.58
2022-09-16T17:38:49.699Z,70.90
2022-09-16T17:41:23.613Z,71.01
2022-09-16T17:43:57.170Z,71.12
2022-09-16T17:51:21.029Z,72.83
2022-09-16T17:53:51.891Z,72.28
2022-09-16T17:56:47.417Z,73.05
2022-09-16T17:59:21.207Z,73.34
2022-09-16T18:02:07.779Z,73.85
2022-09-16T18:04:52.920Z,73.13
2022-09-16T18:07:22.544Z,73.25
2022-09-16T18:09:52.706Z,73.29
2022-09-16T18:12:21.870Z,73.11
2022-09-16T18:14:50.585Z,73.69
2022-09-16T18:17:23.138Z,73.49
2022-09-16T18:19:52.759Z,73.11
2022-09-16T18:22:21.978Z,73.02
2022-09-16T18:24:52.556Z,73.38
2022-09-16T18:27:21.793Z,72.92
2022-09-16T18:29:51.491Z,73.13
2022-09-16T18:32:20.606Z,73.30
2022-09-16T18:34:50.206Z,73.05
2022-09-16T18:37:19.865Z,73.49
2022-09-16T18:39:49.999Z,73.87
2022-09-16T18:42:21.031Z,73.86
2022-09-16T18:44:50.460Z,74.01
2022-09-16T18:47:19.760Z,73.85
2022-09-16T18:49:49.091Z,74.55
2022-09-16T18:52:17.979Z,74.45
2022-09-16T18:54:47.122Z,74.81
2022-09-16T18:58:05.758Z,75.18
2022-09-16T19:00:36.250Z,74.48
2022-09-16T19:03:05.125Z,74.65
2022-09-16T19:05:33.875Z,74.48
2022-09-16T19:08:02.638Z,75.04
2022-09-16T19:10:31.832Z,75.27
2022-09-16T19:13:02.229Z,74.47
2022-09-16T19:15:31.026Z,74.57
2022-09-16T19:18:00.278Z,74.52
2022-09-16T19:20:29.210Z,74.56
2022-09-16T19:22:57.981Z,74.55
2022-09-16T19:25:27.054Z,74.63
2022-09-16T19:27:55.812Z,74.57
2022-09-16T19:30:26.511Z,74.71
2022-09-16T19:32:55.285Z,75.14
2022-09-16T19:35:28.649Z,75.24
2022-09-16T19:38:05.465Z,74.86
2022-09-16T19:40:43.193Z,74.39
2022-09-16T19:43:12.484Z,74.72
2022-09-16T19:45:42.847Z,74.78
2022-09-16T19:48:11.419Z,74.65
2022-09-16T19:50:45.806Z,74.47
2022-09-16T19:53:14.908Z,74.79
2022-09-16T19:55:44.056Z,74.49
2022-09-16T19:58:13.606Z,74.96
2022-09-16T20:01:12.316Z,75.01
2022-09-16T20:03:44.918Z,74.46
2022-09-16T20:06:17.704Z,74.97
2022-09-16T20:08:49.612Z,75.24
2022-09-16T20:11:24.965Z,75.00
2022-09-16T20:13:56.488Z,74.95
2022-09-16T20:16:30.949Z,75.12
2022-09-16T20:19:00.257Z,74.74
2022-09-16T20:21:31.191Z,75.56
2022-09-16T20:24:00.824Z,75.30
2022-09-16T20:26:31.331Z,75.41
2022-09-16T20:29:05.715Z,75.50
2022-09-16T20:31:38.898Z,75.29
2022-09-16T20:34:09.608Z,75.18
2022-09-16T20:36:41.487Z,75.25
2022-09-16T20:39:12.089Z,74.91
2022-09-16T20:41:43.168Z,75.45
2022-09-16T20:44:15.839Z,75.65
2022-09-16T20:47:12.174Z,75.27
2022-09-16T20:49:41.362Z,75.00
2022-09-16T20:52:10.698Z,75.21
2022-09-16T20:54:44.160Z,75.06
2022-09-16T20:57:17.903Z,75.54
2022-09-16T20:59:47.151Z,75.31
2022-09-16T21:02:20.218Z,75.28
2022-09-16T21:04:50.094Z,75.25
2022-09-16T21:07:19.078Z,75.94
2022-09-16T21:09:47.940Z,75.81
2022-09-16T21:12:17.785Z,76.37
2022-09-16T21:14:46.450Z,76.69
2022-09-16T21:17:19.913Z,76.56
2022-09-16T21:19:49.355Z,76.86
2022-09-16T21:22:18.237Z,76.51
2022-09-16T21:25:09.254Z,76.42
2022-09-16T21:27:40.375Z,76.63
2022-09-16T21:30:11.685Z,76.04
2022-09-16T21:32:44.121Z,75.66
2022-09-16T21:35:12.758Z,75.57
2022-09-16T21:37:41.686Z,76.26
2022-09-16T21:40:12.907Z,74.91
2022-09-16T21:42:41.780Z,74.57
2022-09-16T21:45:11.330Z,74.09
2022-09-16T21:47:47.325Z,74.95
2022-09-16T21:50:16.114Z,74.70
2022-09-16T21:52:45.469Z,74.50
2022-09-16T21:55:14.295Z,74.78
2022-09-16T22:01:53.986Z,74.81
2022-09-16T22:04:26.518Z,75.05
2022-09-16T22:06:56.084Z,75.36
2022-09-16T22:09:24.818Z,74.37
2022-09-16T22:11:53.734Z,74.73
2022-09-16T22:14:22.394Z,74.56
2022-09-16T22:16:51.123Z,74.52
2022-09-16T22:20:15.315Z,74.27
2022-09-16T22:22:44.069Z,74.80
2022-09-16T22:25:12.663Z,74.57
2022-09-16T22:27:41.264Z,74.32
2022-09-16T22:30:12.555Z,74.31
2022-09-16T22:32:41.436Z,74.13
2022-09-16T22:35:11.002Z,74.46
2022-09-16T22:37:41.070Z,74.78
2022-09-16T22:40:10.771Z,74.60
2022-09-16T22:42:39.601Z,74.84
2022-09-16T22:45:09.836Z,74.95
2022-09-16T22:47:39.920Z,74.81
2022-09-16T22:50:10.060Z,74.86
2022-09-16T22:52:40.845Z,74.52
2022-09-16T22:55:10.701Z,74.81
2022-09-16T22:57:39.774Z,74.51
2022-09-16T23:00:10.935Z,74.39
2022-09-16T23:02:40.142Z,74.44
2022-09-16T23:05:10.005Z,74.11
2022-09-16T23:07:40.117Z,74.18
2022-09-16T23:10:10.711Z,74.46
2022-09-16T23:12:40.802Z,74.32
2022-09-16T23:15:23.513Z,73.91
2022-09-16T23:17:52.125Z,74.30
2022-09-16T23:20:20.686Z,73.93
2022-09-16T23:22:50.964Z,73.67
2022-09-16T23:25:19.747Z,73.51
2022-09-16T23:27:48.519Z,73.52
2022-09-16T23:30:17.567Z,72.93
2022-09-16T23:32:46.612Z,73.04
2022-09-16T23:35:16.875Z,73.02
2022-09-16T23:37:46.674Z,72.63
2022-09-16T23:40:17.070Z,72.95
2022-09-16T23:42:45.821Z,70.64
2022-09-16T23:45:14.739Z,70.68
2022-09-16T23:47:45.205Z,71.33
2022-09-16T23:50:14.041Z,71.52
2022-09-16T23:52:42.824Z,70.00
2022-09-16T23:55:11.552Z,70.34
2022-09-16T23:57:42.564Z,70.73
